Hoyt Lakes, Minnesota
Current Conditions -  °F | °C
As of 7:31 AM on Thursday 23 Oct 2014 (Local Time) from KEVM Reporting Station
Overcast Overcast  
Wind Chill: 41°   Ceiling: 500
Heat Index: 45°   Visibility: 7mi
Dew Point: 45°   Wind: 6mph
Humidity: 100%   Direction: 200°SSW
Pressure: 29.95"   Gusts: NA
Location:  47.52°N, 92.14°W
Report Text: KEVM 231231Z AUTO 20005KT 7SM OVC005 07/07 A2995 RMK AO2
Loading
Personal Weather Stations






























Interactive Weather Map
Tropical Storm Tracking
New forecast layout! Learn more

10-Day Weather Forecast

Advertisements
Track Severe Weather on mobile